Time;durP1;ratioP1;P1;durP2;ratioP2;P2;SDS_P1;SDS_P2;PMS_P1;PMS_P2;Temp;Humidity;BMP_temperature;BMP_pressure;BME280_temperature;BME280_humidity;BME280_pressure;Samples;Min_cycle;Max_cycle;Signal;HPM_P1;HPM_P2
2022/09/23 00:00:40;;;;;;;10.97;6.30;;;4.90;99.90;;;;;;5028686;28;20095;-76
2022/09/23 00:03:06;;;;;;;10.07;6.27;;;4.90;99.90;;;;;;5028572;28;20124;-75
2022/09/23 00:05:31;;;;;;;11.47;6.90;;;4.90;99.90;;;;;;5028744;28;20108;-76
2022/09/23 00:07:57;;;;;;;11.30;5.97;;;4.90;99.90;;;;;;5028435;28;20203;-75
2022/09/23 00:10:25;;;;;;;9.83;6.33;;;4.90;99.90;;;;;;5028903;28;20041;-75
2022/09/23 00:12:51;;;;;;;8.30;6.20;;;4.90;99.90;;;;;;5028389;28;20437;-75
2022/09/23 00:15:17;;;;;;;9.50;6.93;;;4.80;99.90;;;;;;5028249;28;20049;-75
2022/09/23 00:17:43;;;;;;;10.70;6.33;;;4.80;99.90;;;;;;5029114;28;20365;-75
2022/09/23 00:20:09;;;;;;;9.03;5.93;;;4.80;99.90;;;;;;5028185;28;20033;-75
2022/09/23 00:22:36;;;;;;;10.60;5.97;;;4.80;99.90;;;;;;5028133;28;20399;-76
2022/09/23 00:25:03;;;;;;;9.03;5.83;;;4.70;99.90;;;;;;5028655;28;20025;-76
2022/09/23 00:27:29;;;;;;;9.03;6.03;;;4.80;99.90;;;;;;5031797;28;20087;-76
2022/09/23 00:29:55;;;;;;;8.63;5.67;;;4.70;99.90;;;;;;5032231;28;20052;-75
2022/09/23 00:32:21;;;;;;;7.83;5.03;;;4.70;99.90;;;;;;5031730;28;20043;-75
2022/09/23 00:34:46;;;;;;;8.53;5.63;;;4.70;99.90;;;;;;5032242;28;20386;-75
2022/09/23 00:37:12;;;;;;;9.80;5.30;;;4.60;99.90;;;;;;5032208;28;20427;-76
2022/09/23 00:39:38;;;;;;;7.77;5.23;;;4.60;99.90;;;;;;5032266;28;20095;-75
2022/09/23 00:42:04;;;;;;;11.90;6.47;;;4.60;99.90;;;;;;5031574;28;20029;-75
2022/09/23 00:44:54;;;;;;;9.20;5.57;;;4.50;99.90;;;;;;5031751;28;20028;-75
2022/09/23 00:47:42;;;;;;;9.00;5.27;;;4.50;99.90;;;;;;5031912;28;20025;-75
2022/09/23 00:50:33;;;;;;;6.90;5.13;;;4.50;99.90;;;;;;5031435;28;20065;-75
2022/09/23 00:53:02;;;;;;;8.10;5.63;;;4.50;99.90;;;;;;5031627;28;20025;-75
2022/09/23 00:55:33;;;;;;;9.13;5.30;;;4.40;99.90;;;;;;5031369;28;20116;-75
2022/09/23 00:58:01;;;;;;;8.33;6.03;;;4.40;99.90;;;;;;5031493;28;20049;-75
2022/09/23 01:00:27;;;;;;;9.13;5.73;;;4.40;99.90;;;;;;5031410;28;20037;-76
2022/09/23 01:02:53;;;;;;;12.70;6.23;;;4.40;99.90;;;;;;5031700;28;20061;-75
2022/09/23 01:05:19;;;;;;;9.50;5.97;;;4.40;99.90;;;;;;5031116;28;20021;-75
2022/09/23 01:07:45;;;;;;;10.10;5.30;;;4.40;99.90;;;;;;5031385;28;20029;-75
2022/09/23 01:10:13;;;;;;;9.23;6.30;;;4.40;99.90;;;;;;5028681;28;20041;-75
2022/09/23 01:12:41;;;;;;;8.17;6.00;;;4.30;99.90;;;;;;5029185;28;20056;-75
2022/09/23 01:15:14;;;;;;;8.27;6.20;;;4.30;99.90;;;;;;5029626;28;20095;-75
2022/09/23 01:18:01;;;;;;;7.57;5.80;;;4.30;99.90;;;;;;5028862;28;20029;-75
2022/09/23 01:20:35;;;;;;;9.30;5.73;;;4.30;99.90;;;;;;5028447;28;20037;-75
2022/09/23 01:23:42;;;;;;;6.67;5.00;;;4.20;99.90;;;;;;5028709;28;20072;-75
2022/09/23 01:26:39;;;;;;;9.82;6.53;;;4.20;99.90;;;;;;5028933;28;20114;-75
2022/09/23 01:29:32;;;;;;;13.40;5.93;;;4.20;99.90;;;;;;5029281;28;20513;-75
2022/09/23 01:32:07;;;;;;;8.00;5.57;;;4.20;99.90;;;;;;5028852;28;20146;-75
2022/09/23 01:34:45;;;;;;;9.00;6.00;;;4.10;99.90;;;;;;5028900;28;20029;-75
2022/09/23 01:37:36;;;;;;;6.87;5.87;;;4.10;99.90;;;;;;5028152;28;20052;-75
2022/09/23 01:40:18;;;;;;;8.73;6.03;;;4.10;99.90;;;;;;5028469;28;20035;-75
2022/09/23 01:42:54;;;;;;;8.30;6.20;;;4.10;99.90;;;;;;5028882;28;20086;-75
2022/09/23 01:45:20;;;;;;;10.17;5.93;;;4.10;99.90;;;;;;5028531;28;20025;-75
2022/09/23 01:48:01;;;;;;;6.83;5.73;;;4.00;99.90;;;;;;5028605;28;20040;-75
2022/09/23 01:53:35;;;;;;;11.70;5.97;;;3.90;99.90;;;;;;5028726;28;20040;-75
2022/09/23 01:56:09;;;;;;;9.63;5.93;;;3.90;99.90;;;;;;5028501;28;20545;-75
2022/09/23 01:58:38;;;;;;;11.57;5.37;;;3.80;99.90;;;;;;5028879;28;20036;-75
2022/09/23 02:01:07;;;;;;;11.03;6.33;;;3.80;99.90;;;;;;5028001;28;20040;-75
2022/09/23 02:03:58;;;;;;;8.67;5.90;;;3.80;99.90;;;;;;5027870;28;20025;-75
2022/09/23 02:06:32;;;;;;;8.07;5.30;;;3.70;99.90;;;;;;5027982;28;20104;-75
2022/09/23 02:09:12;;;;;;;9.60;5.50;;;3.60;99.90;;;;;;5028295;28;20486;-75
2022/09/23 02:11:42;;;;;;;9.73;5.60;;;3.60;99.90;;;;;;5028010;28;20489;-75
2022/09/23 02:14:20;;;;;;;10.23;5.50;;;3.50;99.90;;;;;;5027928;28;20804;-75
2022/09/23 02:16:49;;;;;;;7.47;5.67;;;3.50;99.90;;;;;;5027803;28;20437;-75
2022/09/23 02:19:29;;;;;;;11.33;5.97;;;3.50;99.90;;;;;;5028092;28;20033;-75
2022/09/23 02:22:07;;;;;;;7.87;6.07;;;3.50;99.90;;;;;;5027485;28;20025;-75
2022/09/23 02:24:37;;;;;;;9.30;6.30;;;3.50;99.90;;;;;;5028343;28;20389;-75
2022/09/23 02:27:08;;;;;;;11.07;6.17;;;3.50;99.90;;;;;;5027675;28;20537;-75
2022/09/23 02:30:08;;;;;;;11.77;6.53;;;3.40;99.90;;;;;;5028174;28;20018;-75
2022/09/23 02:32:40;;;;;;;11.10;6.30;;;3.40;99.90;;;;;;5027839;28;20028;-75
2022/09/23 02:35:05;;;;;;;11.17;5.77;;;3.40;99.90;;;;;;5027880;28;20030;-75
2022/09/23 02:37:52;;;;;;;9.53;6.20;;;3.40;99.90;;;;;;5027425;28;20056;-75
2022/09/23 02:40:30;;;;;;;9.93;6.50;;;3.40;99.90;;;;;;5027717;28;20029;-75
2022/09/23 02:43:10;;;;;;;9.37;5.70;;;3.40;99.90;;;;;;5027344;28;20071;-75
2022/09/23 02:45:39;;;;;;;9.87;5.90;;;3.40;99.90;;;;;;5027232;28;20017;-75
2022/09/23 02:48:22;;;;;;;8.73;5.60;;;3.40;99.90;;;;;;5027157;28;20052;-75
2022/09/23 02:50:48;;;;;;;7.70;5.50;;;3.40;99.90;;;;;;5026607;28;20173;-75
2022/09/23 02:53:17;;;;;;;7.73;5.70;;;3.30;99.90;;;;;;5026663;28;20120;-75
2022/09/23 02:55:42;;;;;;;8.00;6.17;;;3.30;99.90;;;;;;5027362;28;20059;-75
2022/09/23 02:58:12;;;;;;;9.90;6.23;;;3.30;99.90;;;;;;5027361;28;20045;-75
2022/09/23 03:01:03;;;;;;;8.03;5.97;;;3.30;99.90;;;;;;5027481;28;20396;-75
2022/09/23 03:04:01;;;;;;;7.83;6.10;;;3.30;99.90;;;;;;5027307;28;20025;-75
2022/09/23 03:06:28;;;;;;;7.57;5.93;;;3.30;99.90;;;;;;5027127;28;20033;-75
2022/09/23 03:09:07;;;;;;;9.20;6.23;;;3.30;99.90;;;;;;5026850;28;20143;-75
2022/09/23 03:11:38;;;;;;;9.37;6.73;;;3.20;99.90;;;;;;5027384;28;20481;-75
2022/09/23 03:14:22;;;;;;;10.40;6.43;;;3.20;99.90;;;;;;5027241;28;20518;-75
2022/09/23 03:16:59;;;;;;;11.67;6.40;;;3.20;99.90;;;;;;5027143;28;20430;-75
2022/09/23 03:19:36;;;;;;;8.23;6.23;;;3.30;99.90;;;;;;5025887;28;20421;-75
2022/09/23 03:22:10;;;;;;;10.20;6.33;;;3.30;99.90;;;;;;5026908;28;20116;-75
2022/09/23 03:24:38;;;;;;;9.63;6.10;;;3.30;99.90;;;;;;5026759;28;20029;-75
2022/09/23 03:27:12;;;;;;;12.50;5.93;;;3.30;99.90;;;;;;5027417;28;20029;-75
2022/09/23 03:29:44;;;;;;;8.57;6.00;;;3.30;99.90;;;;;;5027187;28;20030;-75
2022/09/23 03:32:10;;;;;;;10.80;6.30;;;3.20;99.90;;;;;;5026918;28;20850;-75
2022/09/23 03:34:39;;;;;;;9.93;6.30;;;3.20;99.90;;;;;;5026795;28;20033;-75
2022/09/23 03:37:31;;;;;;;16.17;8.40;;;3.20;99.90;;;;;;5026927;28;20037;-75
2022/09/23 03:40:00;;;;;;;17.57;10.80;;;3.10;99.90;;;;;;5026752;28;20045;-75
2022/09/23 03:42:30;;;;;;;26.70;15.03;;;3.10;99.90;;;;;;5026605;28;20164;-74
2022/09/23 03:44:57;;;;;;;33.20;15.90;;;3.10;99.90;;;;;;5026688;28;20025;-75
2022/09/23 03:47:25;;;;;;;29.70;16.07;;;3.10;99.90;;;;;;5027161;28;20060;-75
2022/09/23 03:49:51;;;;;;;41.47;18.00;;;3.10;99.90;;;;;;5026931;28;20134;-75
2022/09/23 03:52:19;;;;;;;34.30;18.43;;;3.10;99.90;;;;;;5026625;28;20466;-75
2022/09/23 03:54:44;;;;;;;29.17;16.20;;;3.00;99.90;;;;;;5026609;28;20036;-75
2022/09/23 03:57:11;;;;;;;30.47;16.63;;;3.00;99.90;;;;;;5026648;28;20058;-75
2022/09/23 03:59:37;;;;;;;27.13;14.30;;;3.00;99.90;;;;;;5026904;28;20033;-75
2022/09/23 04:02:05;;;;;;;21.97;11.90;;;3.00;99.90;;;;;;5029163;28;20037;-75
2022/09/23 04:04:33;;;;;;;17.33;10.67;;;2.90;99.90;;;;;;5029136;28;20447;-75
2022/09/23 04:06:59;;;;;;;13.17;7.77;;;2.90;99.90;;;;;;5030107;28;20025;-75
2022/09/23 04:09:25;;;;;;;14.33;8.27;;;2.90;99.90;;;;;;5030104;28;20068;-75
2022/09/23 04:11:51;;;;;;;13.97;8.43;;;2.90;99.90;;;;;;5030297;28;20036;-75
2022/09/23 04:14:18;;;;;;;13.23;8.40;;;2.90;99.90;;;;;;5030652;28;20115;-75
2022/09/23 04:16:45;;;;;;;12.37;6.93;;;2.90;99.90;;;;;;5030397;28;20116;-75
2022/09/23 04:19:11;;;;;;;12.77;6.63;;;2.90;99.90;;;;;;5030387;28;20710;-75
2022/09/23 04:21:37;;;;;;;10.10;6.27;;;2.80;99.90;;;;;;5030580;28;20142;-75
2022/09/23 04:24:03;;;;;;;15.13;5.73;;;2.80;99.90;;;;;;5030878;28;20021;-75
2022/09/23 04:26:30;;;;;;;10.13;5.93;;;2.80;99.90;;;;;;5030621;28;20026;-75
2022/09/23 04:28:55;;;;;;;8.17;5.73;;;2.80;99.90;;;;;;5030202;28;20048;-75
2022/09/23 04:31:22;;;;;;;10.37;6.03;;;2.70;99.90;;;;;;5030295;28;20799;-75
2022/09/23 04:33:48;;;;;;;11.27;6.30;;;2.70;99.90;;;;;;5028924;28;20636;-75
2022/09/23 04:36:14;;;;;;;11.80;5.77;;;2.60;99.90;;;;;;5029706;28;20057;-75
2022/09/23 04:38:45;;;;;;;10.33;5.80;;;2.60;99.90;;;;;;5030265;28;20068;-75
2022/09/23 04:41:12;;;;;;;7.93;5.40;;;2.60;99.90;;;;;;5029884;28;20033;-78
2022/09/23 04:43:38;;;;;;;9.87;6.37;;;2.60;99.90;;;;;;5029533;28;20371;-78
2022/09/23 04:46:05;;;;;;;9.60;6.23;;;2.50;99.90;;;;;;5030716;28;20029;-78
2022/09/23 04:48:31;;;;;;;9.67;5.83;;;2.50;99.90;;;;;;5030486;28;20029;-78
2022/09/23 04:51:05;;;;;;;10.10;5.90;;;2.50;99.90;;;;;;5030334;28;20329;-78
2022/09/23 04:53:31;;;;;;;8.70;5.70;;;2.50;99.90;;;;;;5029735;28;20105;-78
2022/09/23 04:56:13;;;;;;;11.23;5.73;;;2.50;99.90;;;;;;5029712;28;20057;-78
2022/09/23 04:58:40;;;;;;;10.83;5.70;;;2.50;99.90;;;;;;5029924;28;20063;-78
2022/09/23 05:01:17;;;;;;;13.00;6.00;;;2.50;99.90;;;;;;5030298;28;20092;-78
2022/09/23 05:03:44;;;;;;;11.33;5.97;;;2.50;99.90;;;;;;5029879;28;20091;-78
2022/09/23 05:06:12;;;;;;;10.93;6.10;;;2.40;99.90;;;;;;5027720;28;20034;-78
2022/09/23 05:08:45;;;;;;;10.07;5.93;;;2.40;99.90;;;;;;5028203;28;20029;-78
2022/09/23 05:11:11;;;;;;;9.33;5.87;;;2.40;99.90;;;;;;5030001;28;20541;-78
2022/09/23 05:13:36;;;;;;;9.60;6.00;;;2.40;99.90;;;;;;5029310;28;20044;-78
2022/09/23 05:16:06;;;;;;;8.77;5.73;;;2.40;99.90;;;;;;5029320;28;20087;-78
2022/09/23 05:18:39;;;;;;;15.87;6.10;;;2.40;99.90;;;;;;5029527;28;20029;-78
2022/09/23 05:21:06;;;;;;;7.97;5.97;;;2.40;99.90;;;;;;5029730;28;20029;-78
2022/09/23 05:23:32;;;;;;;9.03;6.30;;;2.40;99.90;;;;;;5029892;28;20044;-78
2022/09/23 05:26:04;;;;;;;7.93;5.87;;;2.40;99.90;;;;;;5029651;28;20079;-78
2022/09/23 05:28:31;;;;;;;10.67;5.87;;;2.40;99.90;;;;;;5028883;28;20033;-78
2022/09/23 05:31:15;;;;;;;9.37;6.03;;;2.50;99.90;;;;;;5029621;28;20037;-78
2022/09/23 05:33:44;;;;;;;7.60;5.90;;;2.50;99.90;;;;;;5028539;28;20029;-78
2022/09/23 05:36:11;;;;;;;9.83;6.00;;;2.50;99.90;;;;;;5028771;28;20029;-78
2022/09/23 05:38:37;;;;;;;7.67;5.90;;;2.50;99.90;;;;;;5029329;28;20049;-78
2022/09/23 05:41:05;;;;;;;9.77;5.60;;;2.60;99.90;;;;;;5028704;28;20026;-78
2022/09/23 05:43:32;;;;;;;9.23;5.93;;;2.60;99.90;;;;;;5028698;28;20488;-78
2022/09/23 05:46:05;;;;;;;10.23;5.57;;;2.60;99.90;;;;;;5029240;28;20467;-78
2022/09/23 05:48:32;;;;;;;9.47;6.30;;;2.70;99.90;;;;;;5029165;28;20037;-78
2022/09/23 05:50:58;;;;;;;8.67;6.17;;;2.80;99.90;;;;;;5028514;28;20021;-78
2022/09/23 05:53:25;;;;;;;10.97;6.53;;;2.80;99.90;;;;;;5029220;28;20462;-78
2022/09/23 05:55:53;;;;;;;11.17;5.67;;;2.90;99.90;;;;;;5028480;28;20124;-78
2022/09/23 05:58:19;;;;;;;12.20;6.00;;;3.00;99.90;;;;;;5028985;28;20025;-78
2022/09/23 06:00:47;;;;;;;7.67;5.80;;;3.10;99.90;;;;;;5027886;28;20091;-79
2022/09/23 06:03:14;;;;;;;7.40;5.73;;;3.10;99.90;;;;;;5027995;28;20049;-78
2022/09/23 06:05:40;;;;;;;8.80;5.27;;;3.20;99.90;;;;;;5028222;28;20033;-78
2022/09/23 06:08:06;;;;;;;9.00;5.73;;;3.30;99.90;;;;;;5028879;28;20036;-78
2022/09/23 06:10:43;;;;;;;9.20;5.70;;;3.40;99.90;;;;;;5028432;28;20483;-79
2022/09/23 06:13:09;;;;;;;8.73;5.70;;;3.40;99.90;;;;;;5028339;28;20033;-79
2022/09/23 06:15:35;;;;;;;9.57;6.37;;;3.50;99.90;;;;;;5028488;28;20028;-78
2022/09/23 06:18:02;;;;;;;8.30;6.50;;;3.60;99.90;;;;;;5028728;28;20033;-78
2022/09/23 06:20:28;;;;;;;8.07;6.07;;;3.60;99.90;;;;;;5028357;28;20036;-78
2022/09/23 06:22:53;;;;;;;9.17;5.87;;;3.70;99.90;;;;;;5029046;28;20033;-78
2022/09/23 06:25:20;;;;;;;10.50;5.93;;;3.80;99.90;;;;;;5027377;28;20464;-78
2022/09/23 06:27:53;;;;;;;10.23;6.23;;;3.90;99.90;;;;;;5028122;28;20029;-78
2022/09/23 06:30:19;;;;;;;12.30;6.87;;;3.90;99.90;;;;;;5027880;28;20617;-78
2022/09/23 06:32:52;;;;;;;9.43;6.73;;;4.00;99.90;;;;;;5027542;28;20029;-78
2022/09/23 06:35:24;;;;;;;8.37;5.87;;;4.10;99.90;;;;;;5028195;28;20078;-78
2022/09/23 06:37:50;;;;;;;12.90;6.17;;;4.20;99.90;;;;;;5028003;28;20095;-78
2022/09/23 06:40:16;;;;;;;8.93;5.87;;;4.20;99.90;;;;;;5028248;28;20033;-78
2022/09/23 06:42:41;;;;;;;10.63;6.40;;;4.30;99.90;;;;;;5028155;28;20426;-78
2022/09/23 06:45:14;;;;;;;8.70;5.67;;;4.40;99.90;;;;;;5028101;28;20017;-78
2022/09/23 06:47:41;;;;;;;11.40;5.53;;;4.50;99.90;;;;;;5028266;28;20118;-78
2022/09/23 06:50:07;;;;;;;10.87;5.50;;;4.60;99.90;;;;;;5028843;28;20505;-78
2022/09/23 06:52:33;;;;;;;12.13;6.00;;;4.70;99.90;;;;;;5028285;28;20025;-78
2022/09/23 06:54:59;;;;;;;8.80;5.47;;;4.80;99.90;;;;;;5027845;28;20112;-78
2022/09/23 06:57:29;;;;;;;6.83;5.70;;;4.90;99.90;;;;;;5027603;28;20156;-78
2022/09/23 06:59:55;;;;;;;12.37;5.83;;;5.10;99.90;;;;;;5028341;28;20316;-78
2022/09/23 07:02:20;;;;;;;9.80;5.27;;;5.10;99.90;;;;;;5032057;28;20115;-78
2022/09/23 07:04:46;;;;;;;12.80;5.90;;;5.20;99.90;;;;;;5032341;28;20021;-78
2022/09/23 07:07:12;;;;;;;14.37;5.90;;;5.30;99.90;;;;;;5031975;28;20034;-78
2022/09/23 07:09:38;;;;;;;10.97;5.70;;;5.50;99.90;;;;;;5032030;28;20025;-78
2022/09/23 07:12:04;;;;;;;10.13;5.87;;;5.60;99.90;;;;;;5031377;28;20032;-78
2022/09/23 07:14:29;;;;;;;10.97;5.70;;;5.70;99.90;;;;;;5030736;28;20036;-78
2022/09/23 07:16:55;;;;;;;8.07;5.57;;;5.90;99.90;;;;;;5030170;28;20083;-78
2022/09/23 07:19:21;;;;;;;9.50;5.37;;;6.00;99.90;;;;;;5029790;28;20469;-78
2022/09/23 07:21:46;;;;;;;11.00;6.10;;;6.20;99.90;;;;;;5029520;28;20033;-78
2022/09/23 07:24:12;;;;;;;8.67;5.40;;;6.40;99.90;;;;;;5029088;28;20482;-78
2022/09/23 07:26:37;;;;;;;5.90;5.30;;;6.50;99.90;;;;;;5027585;28;20029;-78
2022/09/23 07:29:06;;;;;;;10.30;5.40;;;6.70;99.90;;;;;;5028228;28;20025;-78
2022/09/23 07:31:33;;;;;;;9.37;5.47;;;6.90;99.90;;;;;;5028902;28;20375;-78
2022/09/23 07:34:02;;;;;;;6.57;5.10;;;7.10;99.90;;;;;;5028832;28;20037;-78
2022/09/23 07:36:30;;;;;;;9.07;4.80;;;7.20;99.90;;;;;;5028923;28;20035;-78
2022/09/23 07:39:01;;;;;;;7.97;5.23;;;7.40;99.90;;;;;;5028847;28;20025;-78
2022/09/23 07:41:32;;;;;;;8.43;5.40;;;7.50;99.90;;;;;;5028758;28;20055;-78
2022/09/23 07:43:59;;;;;;;6.33;4.53;;;7.70;99.90;;;;;;5028833;28;20036;-78
2022/09/23 07:46:31;;;;;;;7.47;4.80;;;7.80;99.90;;;;;;5028765;28;20025;-78
2022/09/23 07:48:57;;;;;;;5.83;4.60;;;7.90;99.90;;;;;;5028809;28;20032;-78
2022/09/23 07:51:28;;;;;;;7.50;4.77;;;8.10;99.90;;;;;;5028605;28;20036;-79
2022/09/23 07:53:54;;;;;;;6.87;4.50;;;8.30;99.90;;;;;;5028094;28;20025;-78
2022/09/23 07:56:23;;;;;;;10.13;4.53;;;8.40;99.90;;;;;;5026441;28;20456;-79
2022/09/23 07:58:58;;;;;;;5.93;4.17;;;8.50;99.90;;;;;;5026695;28;20021;-78
2022/09/23 08:01:31;;;;;;;4.95;4.18;;;8.60;99.90;;;;;;5026789;28;20022;-78
2022/09/23 08:03:58;;;;;;;7.83;4.37;;;8.80;99.90;;;;;;5026927;28;20044;-78
2022/09/23 08:06:25;;;;;;;6.53;4.10;;;8.90;99.90;;;;;;5026651;28;20025;-78
2022/09/23 08:08:50;;;;;;;6.57;4.10;;;9.00;99.90;;;;;;5027285;28;20048;-78
2022/09/23 08:11:16;;;;;;;10.77;3.57;;;9.20;99.90;;;;;;5026906;28;20510;-78
2022/09/23 08:13:42;;;;;;;7.80;4.00;;;9.30;99.90;;;;;;5026361;28;20052;-78
2022/09/23 08:16:08;;;;;;;5.43;3.80;;;9.50;99.90;;;;;;5026247;28;20080;-79
2022/09/23 08:18:34;;;;;;;4.23;3.03;;;9.70;99.90;;;;;;5026761;28;20047;-79
2022/09/23 08:20:59;;;;;;;7.40;3.70;;;9.80;99.90;;;;;;5026621;28;20022;-79
2022/09/23 08:23:25;;;;;;;6.63;3.77;;;9.90;99.90;;;;;;5026210;28;20386;-79
2022/09/23 08:25:59;;;;;;;7.33;3.50;;;10.00;99.90;;;;;;5027061;28;20026;-79
2022/09/23 08:28:25;;;;;;;7.73;3.50;;;10.10;99.90;;;;;;5026060;28;20218;-79
2022/09/23 08:30:51;;;;;;;7.03;3.60;;;10.30;99.90;;;;;;5026334;28;20109;-79
2022/09/23 08:33:16;;;;;;;5.10;3.00;;;10.40;99.90;;;;;;5026712;28;20060;-79
2022/09/23 08:35:42;;;;;;;10.67;3.67;;;10.60;99.90;;;;;;5026125;28;20057;-79
2022/09/23 08:38:07;;;;;;;7.20;3.20;;;10.80;99.90;;;;;;5026831;28;20034;-79
2022/09/23 08:40:37;;;;;;;4.63;3.10;;;11.00;99.90;;;;;;5025113;28;20120;-79
2022/09/23 08:43:06;;;;;;;3.87;3.10;;;11.20;99.90;;;;;;5025837;28;20029;-79
2022/09/23 08:45:35;;;;;;;4.53;2.97;;;11.40;99.90;;;;;;5026462;28;20026;-79
2022/09/23 08:48:07;;;;;;;3.73;2.97;;;11.60;99.90;;;;;;5028252;28;20112;-79
2022/09/23 08:50:50;;;;;;;4.13;2.90;;;11.70;99.90;;;;;;5030331;28;20025;-79
2022/09/23 08:53:27;;;;;;;5.13;2.85;;;12.10;99.90;;;;;;5030185;28;20462;-79
2022/09/23 08:55:56;;;;;;;3.40;2.60;;;12.30;99.90;;;;;;5029104;28;20072;-79
2022/09/23 08:58:44;;;;;;;3.90;2.63;;;12.50;99.90;;;;;;5030422;28;20029;-79
2022/09/23 09:01:15;;;;;;;3.50;2.45;;;12.80;99.90;;;;;;5029871;28;20104;-79
2022/09/23 09:03:50;;;;;;;3.65;2.75;;;13.00;99.90;;;;;;5028578;28;20036;-79
2022/09/23 09:06:26;;;;;;;8.32;3.40;;;13.30;99.90;;;;;;5029586;28;20053;-79
2022/09/23 09:08:56;;;;;;;5.35;2.88;;;13.50;99.90;;;;;;5029954;28;20465;-76
2022/09/23 09:11:30;;;;;;;3.47;2.50;;;13.50;99.90;;;;;;5029882;28;20034;-76
2022/09/23 09:14:23;;;;;;;7.35;3.17;;;13.60;99.90;;;;;;5029573;28;20596;-76
2022/09/23 09:17:23;;;;;;;4.65;3.05;;;14.00;99.90;;;;;;5029430;28;20032;-76
2022/09/23 09:19:54;;;;;;;4.30;2.85;;;14.20;99.90;;;;;;5028909;28;20036;-76
2022/09/23 09:22:32;;;;;;;4.20;3.15;;;14.40;99.90;;;;;;5029327;28;20061;-76
2022/09/23 09:25:10;;;;;;;3.85;2.72;;;14.70;99.90;;;;;;5028729;28;20134;-76
2022/09/23 09:27:39;;;;;;;4.65;3.00;;;14.80;99.90;;;;;;5029871;28;20029;-76
2022/09/23 09:30:10;;;;;;;4.15;2.88;;;15.10;99.90;;;;;;5029337;28;20447;-76
2022/09/23 09:32:47;;;;;;;5.47;3.13;;;15.20;99.90;;;;;;5029030;28;20029;-76
2022/09/23 09:35:59;;;;;;;7.10;2.88;;;15.60;99.90;;;;;;5029452;28;20056;-76
2022/09/23 09:38:26;;;;;;;4.57;3.03;;;15.80;99.90;;;;;;5028612;28;20049;-76
2022/09/23 09:40:57;;;;;;;5.97;3.33;;;16.00;99.90;;;;;;5028884;28;20036;-76
2022/09/23 09:43:23;;;;;;;7.07;3.05;;;15.80;99.90;;;;;;5028914;28;20029;-76
2022/09/23 09:46:20;;;;;;;4.10;2.88;;;16.00;99.90;;;;;;5028850;28;20457;-76
2022/09/23 09:48:59;;;;;;;5.70;2.90;;;16.10;99.90;;;;;;5028652;28;20032;-76
2022/09/23 09:51:27;;;;;;;5.22;3.33;;;16.30;99.90;;;;;;5028860;28;20502;-76
2022/09/23 09:53:54;;;;;;;7.72;2.95;;;16.40;99.90;;;;;;5029116;28;20105;-76
2022/09/23 09:56:26;;;;;;;4.07;3.10;;;16.50;99.90;;;;;;5028766;28;20037;-76
2022/09/23 09:59:09;;;;;;;6.05;2.90;;;16.50;99.90;;;;;;5028046;28;20071;-81
2022/09/23 10:01:35;;;;;;;5.78;3.30;;;16.50;99.90;;;;;;5029067;28;20489;-77
2022/09/23 10:04:04;;;;;;;7.28;3.83;;;16.60;99.90;;;;;;5030104;28;20035;-77
2022/09/23 10:06:34;;;;;;;7.05;3.67;;;16.80;99.90;;;;;;5029637;28;20028;-77
2022/09/23 10:09:03;;;;;;;6.25;3.40;;;16.90;99.90;;;;;;5028282;28;20457;-77
2022/09/23 10:11:30;;;;;;;7.13;3.10;;;16.90;99.90;;;;;;5029424;28;20087;-77
2022/09/23 10:14:05;;;;;;;3.85;2.67;;;17.10;99.90;;;;;;5029797;28;20099;-77
2022/09/23 10:16:33;;;;;;;4.30;3.20;;;17.30;99.90;;;;;;5029404;28;20124;-77
2022/09/23 10:19:10;;;;;;;5.05;3.08;;;17.60;99.90;;;;;;5029276;28;20132;-77
2022/09/23 10:21:37;;;;;;;6.30;2.85;;;17.60;99.90;;;;;;5029293;28;20033;-77
2022/09/23 10:24:07;;;;;;;4.03;2.90;;;17.60;99.90;;;;;;5029777;28;20064;-77
2022/09/23 10:26:49;;;;;;;7.70;3.08;;;17.70;99.90;;;;;;5029276;28;20030;-77
2022/09/23 10:29:35;;;;;;;5.22;2.88;;;17.80;99.90;;;;;;5029325;28;20025;-77
2022/09/23 10:32:19;;;;;;;5.57;3.30;;;18.00;99.90;;;;;;5029558;28;20478;-77
2022/09/23 10:34:53;;;;;;;9.30;3.60;;;18.30;99.90;;;;;;5029112;28;20029;-77
2022/09/23 10:37:25;;;;;;;5.43;3.50;;;18.30;99.90;;;;;;5029162;28;20034;-77
2022/09/23 10:48:50;;;;;;;5.75;2.58;;;18.40;99.90;;;;;;5029396;28;20036;-77
2022/09/23 10:51:23;;;;;;;4.07;2.47;;;18.60;99.90;;;;;;5028870;28;20371;-77
2022/09/23 10:54:09;;;;;;;4.55;2.22;;;18.60;99.90;;;;;;5027781;28;20069;-77
2022/09/23 10:56:53;;;;;;;3.75;2.33;;;18.80;99.90;;;;;;5029174;28;20140;-77
2022/09/23 10:59:46;;;;;;;4.22;2.53;;;18.80;99.90;;;;;;5028777;28;20151;-77
2022/09/23 11:02:48;;;;;;;3.80;2.30;;;19.00;99.90;;;;;;5028851;28;20049;-77
2022/09/23 11:05:22;;;;;;;4.45;2.53;;;19.20;99.90;;;;;;5029095;28;20063;-77
2022/09/23 11:08:17;;;;;;;6.03;2.83;;;19.40;99.90;;;;;;5028557;28;20029;-77
2022/09/23 11:11:10;;;;;;;5.88;2.40;;;19.50;99.90;;;;;;5028167;28;20029;-77
2022/09/23 11:13:51;;;;;;;6.63;2.92;;;19.70;99.90;;;;;;5028724;28;20128;-77
2022/09/23 11:16:37;;;;;;;5.57;2.10;;;19.70;99.90;;;;;;5029090;28;20447;-77
2022/09/23 11:19:12;;;;;;;7.38;2.78;;;19.60;99.90;;;;;;5028707;28;20412;-77
2022/09/23 11:22:22;;;;;;;4.10;3.03;;;19.60;99.90;;;;;;5028832;28;20071;-77
2022/09/23 11:24:57;;;;;;;3.33;2.70;;;19.60;99.90;;;;;;5028512;28;20033;-77
2022/09/23 11:27:56;;;;;;;3.20;2.38;;;19.70;99.90;;;;;;5028804;28;20036;-77
2022/09/23 11:30:31;;;;;;;5.38;2.78;;;19.90;99.90;;;;;;5028605;28;20028;-77
2022/09/23 11:33:03;;;;;;;5.43;2.80;;;19.80;99.90;;;;;;5027091;28;20026;-76
2022/09/23 11:35:40;;;;;;;2.97;2.47;;;19.90;99.90;;;;;;5026524;28;20025;-76
2022/09/23 11:38:34;;;;;;;4.57;3.00;;;19.90;99.90;;;;;;5026341;28;20043;-76
2022/09/23 11:41:16;;;;;;;5.38;3.30;;;19.80;99.90;;;;;;5026711;28;20028;-76
2022/09/23 11:43:50;;;;;;;5.10;3.10;;;19.90;99.90;;;;;;5027053;28;20028;-76
2022/09/23 11:46:22;;;;;;;6.18;3.03;;;19.90;99.90;;;;;;5027381;28;20493;-77
2022/09/23 11:49:01;;;;;;;7.40;3.47;;;20.00;99.90;;;;;;5026930;28;20033;-78
2022/09/23 11:51:38;;;;;;;5.90;2.83;;;20.10;99.90;;;;;;5026355;28;20033;-77
2022/09/23 11:54:23;;;;;;;3.90;3.00;;;20.00;99.90;;;;;;5026486;28;20024;-77
2022/09/23 11:56:53;;;;;;;5.82;2.83;;;20.00;99.90;;;;;;5026692;28;20498;-81
2022/09/23 11:59:42;;;;;;;4.18;3.00;;;20.00;99.90;;;;;;5026945;28;20429;-81
2022/09/23 12:02:47;;;;;;;4.97;3.20;;;20.30;99.90;;;;;;5026568;28;20117;-81
2022/09/23 12:05:20;;;;;;;3.97;2.70;;;20.40;99.90;;;;;;5023929;28;20078;-81
2022/09/23 12:07:52;;;;;;;7.60;3.38;;;20.30;99.90;;;;;;5026694;28;20461;-81
2022/09/23 12:10:19;;;;;;;4.63;3.15;;;20.40;99.90;;;;;;5026384;28;20493;-81
2022/09/23 12:13:09;;;;;;;5.53;3.08;;;20.60;99.90;;;;;;5026398;28;20046;-81
2022/09/23 12:16:02;;;;;;;6.68;4.05;;;21.00;99.90;;;;;;5026611;28;20032;-81
2022/09/23 12:18:53;;;;;;;8.43;3.60;;;20.80;99.90;;;;;;5024286;28;20056;-81
2022/09/23 12:21:47;;;;;;;5.90;3.22;;;20.80;99.90;;;;;;5024602;28;20187;-81
2022/09/23 12:24:14;;;;;;;6.78;3.30;;;20.90;99.90;;;;;;5028714;28;20402;-81
2022/09/23 12:26:41;;;;;;;7.75;3.63;;;20.80;99.90;;;;;;5030517;28;20060;-81
2022/09/23 12:29:11;;;;;;;6.43;3.67;;;20.80;99.90;;;;;;5030037;28;20079;-81
2022/09/23 12:31:38;;;;;;;5.15;3.75;;;20.80;99.90;;;;;;5030641;28;20450;-81
2022/09/23 12:34:27;;;;;;;6.20;3.67;;;20.60;99.90;;;;;;5030093;28;20033;-81
2022/09/23 12:36:53;;;;;;;6.30;3.15;;;20.60;99.90;;;;;;5029312;28;20030;-81
2022/09/23 12:39:33;;;;;;;4.25;3.20;;;20.50;99.90;;;;;;5030150;28;20036;-81
2022/09/23 12:42:05;;;;;;;5.15;3.30;;;20.40;99.90;;;;;;5029969;28;20064;-81
2022/09/23 12:44:43;;;;;;;7.30;3.60;;;20.70;99.90;;;;;;5030016;28;20021;-81
2022/09/23 12:47:35;;;;;;;5.97;3.90;;;20.80;99.90;;;;;;5029686;28;20049;-82
2022/09/23 12:50:01;;;;;;;6.78;4.38;;;20.80;99.90;;;;;;5029542;28;20028;-81
2022/09/23 12:52:32;;;;;;;7.22;3.63;;;20.70;99.90;;;;;;5029661;28;20037;-81
2022/09/23 12:55:37;;;;;;;9.85;3.67;;;20.70;99.90;;;;;;5029600;28;20033;-81
2022/09/23 12:58:55;;;;;;;9.55;3.65;;;20.80;99.90;;;;;;5029137;28;20053;-81
2022/09/23 13:01:23;;;;;;;8.95;3.47;;;20.80;99.90;;;;;;5030135;28;20390;-81
2022/09/23 13:06:45;;;;;;;6.78;3.80;;;21.10;99.90;;;;;;5029718;28;20033;-81
2022/09/23 13:09:23;;;;;;;6.97;3.50;;;21.20;99.90;;;;;;5029941;28;20506;-81
2022/09/23 13:11:51;;;;;;;9.70;3.72;;;21.10;99.90;;;;;;5029342;28;20029;-81
2022/09/23 13:14:21;;;;;;;6.95;3.42;;;21.10;99.90;;;;;;5029227;28;20033;-81
2022/09/23 13:16:48;;;;;;;7.70;3.72;;;21.10;99.90;;;;;;5029147;28;20045;-81
2022/09/23 13:19:30;;;;;;;8.07;3.25;;;21.30;99.90;;;;;;5029730;28;20026;-81
2022/09/23 13:22:09;;;;;;;6.10;3.38;;;21.00;99.90;;;;;;5029214;28;20036;-81
2022/09/23 13:24:59;;;;;;;6.50;3.85;;;21.00;99.90;;;;;;5029112;28;20030;-81
2022/09/23 13:27:32;;;;;;;5.80;4.38;;;21.00;99.90;;;;;;5027681;28;20022;-81
2022/09/23 13:30:26;;;;;;;6.38;3.75;;;21.00;99.90;;;;;;5028740;28;20592;-82
2022/09/23 13:33:15;;;;;;;4.82;3.67;;;20.90;99.90;;;;;;5028251;28;20033;-82
2022/09/23 13:35:49;;;;;;;7.32;3.80;;;20.70;99.90;;;;;;5027398;28;20036;-81